Time;durP1;ratioP1;P1;durP2;ratioP2;P2;SDS_P1;SDS_P2;PMS_P1;PMS_P2;Temp;Humidity;BMP_temperature;BMP_pressure;BME280_temperature;BME280_humidity;BME280_pressure;Samples;Min_cycle;Max_cycle;Signal;HPM_P1;HPM_P2
2022/09/24 00:01:12;;;;;;;;;9.67;9.67;;;;;17.88;51.22;100911.97;5099192;27;45366;-49
2022/09/24 00:03:39;;;;;;;;;13.67;11.00;;;;;17.86;51.37;100911.28;5099285;27;45540;-48
2022/09/24 00:06:05;;;;;;;;;11.33;9.67;;;;;17.86;51.40;100911.28;5080595;27;46385;-47
2022/09/24 00:08:32;;;;;;;;;5.00;5.00;;;;;17.85;51.45;100926.63;5098660;27;45361;-48
2022/09/24 00:11:02;;;;;;;;;12.33;11.00;;;;;17.81;51.35;100913.72;5080514;27;45230;-46
2022/09/24 00:13:28;;;;;;;;;17.00;12.33;;;;;17.72;51.60;100902.22;5099107;27;45421;-47
2022/09/24 00:15:54;;;;;;;;;11.67;10.00;;;;;17.79;51.66;100922.00;5080520;27;45349;-50
2022/09/24 00:18:20;;;;;;;;;14.33;11.67;;;;;17.78;51.93;100912.28;5098852;27;45396;-47
2022/09/24 00:20:46;;;;;;;;;12.00;10.67;;;;;17.76;51.91;100911.59;5098933;27;45359;-48
2022/09/24 00:23:12;;;;;;;;;15.33;9.67;;;;;17.78;52.13;100916.78;5099096;27;45232;-46
2022/09/24 00:28:26;;;;;;;;;10.00;8.67;;;;;17.75;52.32;100914.50;5098740;27;45241;-47
2022/09/24 00:30:51;;;;;;;;;11.67;10.67;;;;;17.73;52.55;100903.88;5098854;27;45670;-48
2022/09/24 00:33:17;;;;;;;;;10.00;9.00;;;;;17.70;52.46;100901.59;5098895;27;45326;-49
2022/09/24 00:35:42;;;;;;;;;9.33;9.33;;;;;17.72;52.72;100902.22;5098523;27;46977;-48
2022/09/24 00:38:07;;;;;;;;;9.00;8.00;;;;;17.69;52.52;100906.09;5098249;27;45351;-47
2022/09/24 00:40:35;;;;;;;;;15.33;12.33;;;;;17.59;52.75;100885.94;5098469;27;45454;-45
2022/09/24 00:43:01;;;;;;;;;12.00;8.00;;;;;17.64;53.02;100897.78;5098888;27;45256;-46
2022/09/24 00:45:29;;;;;;;;;16.33;12.00;;;;;17.69;52.91;100910.66;5098369;27;47004;-44
2022/09/24 00:47:57;;;;;;;;;14.33;8.33;;;;;17.67;53.20;100912.72;5098298;27;45264;-45
2022/09/24 00:50:28;;;;;;;;;16.67;9.00;;;;;17.60;53.04;100898.34;5079219;27;45330;-46
2022/09/24 00:53:01;;;;;;;;;13.33;9.33;;;;;17.63;53.19;100901.50;5097843;27;45531;-47
2022/09/24 00:55:27;;;;;;;;;9.33;9.33;;;;;17.56;53.34;100897.88;5098141;27;46317;-45
2022/09/24 00:57:57;;;;;;;;;13.67;11.33;;;;;17.55;53.35;100890.03;5079875;27;45307;-49
2022/09/24 01:00:23;;;;;;;;;12.33;8.33;;;;;17.62;53.31;100902.53;5098333;27;45429;-47
2022/09/24 01:02:53;;;;;;;;;14.33;8.33;;;;;17.61;53.24;100900.00;5098444;27;45311;-49
2022/09/24 01:05:19;;;;;;;;;10.00;10.00;;;;;17.59;53.65;100894.81;5098654;27;45213;-48
2022/09/24 01:07:47;;;;;;;;;10.00;9.00;;;;;17.60;53.67;100898.34;5099144;27;45375;-49
2022/09/24 01:10:46;;;;;;;;;13.33;10.33;;;;;17.59;53.83;100907.44;5098710;27;45459;-48
2022/09/24 01:13:09;;;;;;;;;7.00;7.00;;;;;17.58;53.65;100897.72;5098345;27;45340;-48
2022/09/24 01:15:46;;;;;;;;;11.67;11.67;;;;;17.59;53.60;100894.00;5097884;27;45354;-45
2022/09/24 01:18:39;;;;;;;;;17.00;15.00;;;;;17.57;53.67;100891.50;5097876;27;45349;-49
2022/09/24 01:21:34;;;;;;;;;18.33;14.00;;;;;17.51;53.61;100886.88;5097870;27;45369;-47
2022/09/24 01:24:08;;;;;;;;;22.33;20.67;;;;;17.51;53.98;100886.88;5097952;27;45346;-47
2022/09/24 01:26:55;;;;;;;;;24.67;20.00;;;;;17.50;53.99;100895.97;5097446;27;47332;-45
2022/09/24 01:29:42;;;;;;;;;20.33;19.00;;;;;17.48;54.60;100895.31;5097668;27;45354;-47
2022/09/24 01:32:11;;;;;;;;;20.00;12.00;;;;;17.45;55.19;100893.84;5097681;27;45397;-46
2022/09/24 01:34:43;;;;;;;;;21.33;16.67;;;;;17.42;55.51;100890.69;5078986;27;45523;-47
2022/09/24 01:37:12;;;;;;;;;9.67;9.67;;;;;17.40;55.71;100890.03;5097428;27;46189;-46
2022/09/24 01:39:38;;;;;;;;;16.00;9.33;;;;;17.35;55.81;100882.53;5096819;27;45484;-46
2022/09/24 01:42:05;;;;;;;;;10.33;10.00;;;;;17.33;56.28;100889.13;5079011;27;45358;-46
2022/09/24 01:44:33;;;;;;;;;10.33;5.33;;;;;17.29;56.74;100880.59;5097783;27;45317;-46
2022/09/24 01:46:58;;;;;;;;;12.00;12.00;;;;;17.26;57.01;100883.66;5097420;27;45303;-45
2022/09/24 01:49:23;;;;;;;;;15.00;12.00;;;;;17.26;57.10;100882.81;5097247;27;45406;-48
2022/09/24 01:51:54;;;;;;;;;14.67;12.33;;;;;17.23;56.98;100875.13;5097541;27;45624;-46
2022/09/24 01:54:27;;;;;;;;;14.00;11.67;;;;;17.19;57.13;100872.84;5097752;27;45385;-48
2022/09/24 01:57:24;;;;;;;;;16.00;12.33;;;;;17.16;57.42;100867.81;5096890;27;47059;-48
2022/09/24 02:00:04;;;;;;;;;14.67;11.33;;;;;17.07;57.96;100860.88;5095837;27;45506;-45
2022/09/24 02:02:44;;;;;;;;;11.00;11.00;;;;;17.13;58.38;100867.34;5097812;27;45414;-49
2022/09/24 02:05:37;;;;;;;;;14.33;11.00;;;;;17.10;58.96;100862.34;5101069;27;45376;-46
2022/09/24 02:08:07;;;;;;;;;13.67;10.33;;;;;17.08;59.82;100869.78;5100675;27;46132;-45
2022/09/24 02:10:41;;;;;;;;;12.33;9.67;;;;;17.06;59.54;100869.09;5100614;27;45273;-48
2022/09/24 02:13:12;;;;;;;;;11.00;11.00;;;;;16.98;59.80;100848.56;5100738;27;45489;-47
2022/09/24 02:15:40;;;;;;;;;14.00;13.00;;;;;17.00;60.94;100854.56;5100113;27;45393;-45
2022/09/24 02:18:13;;;;;;;;;15.33;12.00;;;;;17.00;60.14;100853.75;5100468;27;45385;-46
2022/09/24 02:20:42;;;;;;;;;16.67;8.33;;;;;16.97;60.14;100849.56;5100478;27;45413;-44
2022/09/24 02:23:10;;;;;;;;;17.33;9.33;;;;;16.91;61.27;100853.84;5100712;27;45319;-47
2022/09/24 02:25:49;;;;;;;;;13.00;10.00;;;;;16.90;59.98;100849.50;5100794;27;45316;-49
2022/09/24 02:28:16;;;;;;;;;13.67;13.00;;;;;16.89;61.35;100846.97;5100195;27;46294;-48
2022/09/24 02:30:48;;;;;;;;;15.33;11.67;;;;;16.83;61.34;100836.97;5100537;27;45284;-45
2022/09/24 02:35:59;;;;;;;;;13.67;10.67;;;;;16.81;62.23;100839.00;5100608;27;45356;-46
2022/09/24 02:38:25;;;;;;;;;11.67;9.33;;;;;16.79;62.53;100833.81;5100366;27;46070;-46
2022/09/24 02:40:51;;;;;;;;;17.67;12.67;;;;;16.78;62.76;100836.69;5100214;27;45445;-46
2022/09/24 02:43:17;;;;;;;;;14.33;13.67;;;;;16.75;62.79;100832.53;5100497;27;45452;-47
2022/09/24 02:45:42;;;;;;;;;12.67;12.00;;;;;16.73;63.04;100829.19;5100691;27;45457;-49
2022/09/24 02:48:07;;;;;;;;;17.00;13.00;;;;;16.70;63.14;100835.72;5100240;27;45961;-47
2022/09/24 02:50:33;;;;;;;;;12.67;12.67;;;;;16.69;63.17;100828.69;5100235;27;45275;-48
2022/09/24 02:52:58;;;;;;;;;17.00;14.67;;;;;16.69;63.31;100828.69;5100210;27;46624;-48
2022/09/24 02:55:23;;;;;;;;;15.67;12.00;;;;;16.68;63.33;100826.19;5099251;27;45502;-48
2022/09/24 02:57:49;;;;;;;;;18.00;12.67;;;;;16.66;63.59;100834.44;5100065;27;45216;-47
2022/09/24 03:00:15;;;;;;;;;15.00;13.00;;;;;16.63;64.09;100826.72;5099941;27;45447;-46
2022/09/24 03:02:40;;;;;;;;;15.00;13.00;;;;;16.53;63.62;100807.38;5100007;27;45380;-48
2022/09/24 03:05:06;;;;;;;;;12.00;12.00;;;;;16.62;63.71;100827.75;5099750;27;45506;-47
2022/09/24 03:07:31;;;;;;;;;18.00;14.00;;;;;16.61;64.60;100827.97;5099590;27;45597;-48
2022/09/24 03:09:57;;;;;;;;;14.67;14.33;;;;;16.62;64.16;100818.88;5099796;27;45347;-47
2022/09/24 03:12:23;;;;;;;;;15.33;14.00;;;;;16.60;64.39;100827.13;5099163;27;45360;-47
2022/09/24 03:14:49;;;;;;;;;14.33;13.00;;;;;16.60;64.72;100811.00;5099469;27;45390;-47
2022/09/24 03:17:14;;;;;;;;;14.33;13.33;;;;;16.60;64.03;100805.63;5099833;27;46274;-47
2022/09/24 03:19:40;;;;;;;;;11.33;11.00;;;;;16.54;64.46;100797.47;5099736;27;45366;-47
2022/09/24 03:22:06;;;;;;;;;16.00;11.67;;;;;16.58;64.67;100807.66;5099763;27;45370;-49
2022/09/24 03:24:31;;;;;;;;;15.67;13.33;;;;;16.46;63.91;100787.66;5099872;27;45437;-48
2022/09/24 03:26:57;;;;;;;;;17.33;12.33;;;;;16.58;64.32;100807.66;5099377;27;46011;-48
2022/09/24 03:30:58;;;;;;;;;18.33;15.33;;;;;16.56;63.26;100812.41;5099551;27;45508;-50
2022/09/24 03:32:07;;;;;;;;;19.67;16.00;;;;;16.55;63.77;100812.56;5099447;27;45384;-47
2022/09/24 03:34:32;;;;;;;;;14.33;14.33;;;;;16.54;63.96;100817.09;5099684;27;45304;-47
2022/09/24 03:36:58;;;;;;;;;15.33;14.00;;;;;16.10;64.11;100731.16;5099395;27;46997;-48
2022/09/24 03:39:23;;;;;;;;;20.00;14.67;;;;;16.53;63.99;100807.38;5099564;27;45215;-46
2022/09/24 03:41:48;;;;;;;;;18.33;12.33;;;;;16.52;63.86;100800.34;5099219;27;45232;-48
2022/09/24 03:44:14;;;;;;;;;19.33;13.00;;;;;16.53;64.27;100803.88;5099643;27;45261;-47
2022/09/24 03:46:39;;;;;;;;;13.33;11.67;;;;;16.53;64.47;100803.88;5099297;27;46045;-48
2022/09/24 03:49:04;;;;;;;;;19.00;14.00;;;;;16.53;64.25;100796.66;5099250;27;45332;-46
2022/09/24 03:51:30;;;;;;;;;20.33;15.00;;;;;16.49;63.44;100798.03;5099074;27;45490;-46
2022/09/24 03:53:55;;;;;;;;;12.33;12.00;;;;;16.44;63.72;100787.84;5099788;27;45358;-47
2022/09/24 03:56:21;;;;;;;;;14.00;11.33;;;;;16.48;63.41;100791.00;5098973;27;45816;-49
2022/09/24 03:58:46;;;;;;;;;17.33;16.00;;;;;16.49;62.60;100797.19;5098888;27;45401;-47
2022/09/24 04:01:13;;;;;;;;;12.00;12.00;;;;;16.48;62.71;100799.06;5099115;27;45227;-46
2022/09/24 04:03:39;;;;;;;;;14.33;12.67;;;;;16.44;62.94;100793.22;5098396;27;45395;-48
2022/09/24 04:06:05;;;;;;;;;16.00;12.00;;;;;16.43;63.01;100791.56;5099016;27;45470;-46
2022/09/24 04:08:30;;;;;;;;;17.00;10.67;;;;;16.43;62.63;100796.06;5098838;27;45398;-46
2022/09/24 04:10:57;;;;;;;;;13.67;12.00;;;;;16.43;62.30;100791.56;5098874;27;45374;-47
2022/09/24 04:13:22;;;;;;;;;9.00;9.00;;;;;16.41;62.57;100795.44;5080501;27;45292;-47
2022/09/24 04:15:49;;;;;;;;;10.00;10.00;;;;;16.41;62.18;100792.75;5098726;27;46206;-44
2022/09/24 04:18:15;;;;;;;;;10.00;9.33;;;;;16.41;62.16;100787.38;5098956;27;45390;-47
2022/09/24 04:20:40;;;;;;;;;11.00;10.33;;;;;16.40;61.77;100783.84;5098977;27;45264;-47
2022/09/24 04:23:06;;;;;;;;;12.33;12.33;;;;;16.39;62.23;100792.94;5098817;27;45488;-46
2022/09/24 04:25:33;;;;;;;;;11.67;9.67;;;;;16.37;62.35;100792.28;5079309;27;46112;-46
2022/09/24 04:28:01;;;;;;;;;12.00;10.33;;;;;16.40;62.90;100786.53;5098322;27;45488;-46
2022/09/24 04:30:29;;;;;;;;;12.67;10.33;;;;;16.42;62.38;100797.09;5098764;27;45301;-46
2022/09/24 04:32:58;;;;;;;;;11.67;10.00;;;;;16.29;62.04;100768.19;5098897;27;45287;-45
2022/09/24 04:35:24;;;;;;;;;11.33;10.00;;;;;16.38;61.98;100793.94;5098433;27;45390;-46
2022/09/24 04:37:49;;;;;;;;;12.00;10.33;;;;;16.35;62.12;100788.09;5098482;27;45430;-45
2022/09/24 04:40:15;;;;;;;;;10.00;8.33;;;;;16.33;62.38;100777.53;5098658;27;45574;-45
2022/09/24 04:42:43;;;;;;;;;12.00;11.00;;;;;16.40;62.25;100796.44;5098392;27;45445;-47
2022/09/24 04:45:09;;;;;;;;;7.67;7.00;;;;;16.42;61.92;100791.72;5079922;27;46116;-47
2022/09/24 04:47:39;;;;;;;;;12.33;8.67;;;;;16.40;62.13;100788.41;5098240;27;45330;-46
2022/09/24 04:50:06;;;;;;;;;12.33;12.33;;;;;16.40;62.31;100793.75;5098398;27;45437;-46
2022/09/24 04:52:32;;;;;;;;;15.00;11.67;;;;;16.39;62.78;100794.75;5098540;27;45309;-46
2022/09/24 04:55:01;;;;;;;;;10.33;10.33;;;;;16.40;62.85;100794.59;5098189;27;46021;-47
2022/09/24 04:57:27;;;;;;;;;12.00;8.67;;;;;16.39;62.20;100790.25;5098336;27;45337;-45
2022/09/24 04:59:53;;;;;;;;;12.00;7.00;;;;;16.41;62.52;100798.13;5098213;27;45393;-47
2022/09/24 05:02:18;;;;;;;;;9.33;8.33;;;;;16.41;62.89;100798.94;5098198;27;45444;-47
2022/09/24 05:04:44;;;;;;;;;12.67;11.00;;;;;16.34;62.70;100787.25;5098239;27;45859;-47
2022/09/24 05:07:10;;;;;;;;;12.67;11.00;;;;;16.40;62.75;100796.44;5098134;27;45289;-45
2022/09/24 05:09:35;;;;;;;;;12.33;10.00;;;;;16.37;62.79;100792.28;5098181;27;45389;-46
2022/09/24 05:12:02;;;;;;;;;13.00;10.67;;;;;16.41;62.89;100803.47;5098164;27;45519;-44
2022/09/24 05:14:27;;;;;;;;;15.67;12.67;;;;;16.41;62.80;100806.16;5097742;27;45370;-46
2022/09/24 05:16:53;;;;;;;;;15.67;11.00;;;;;16.40;62.98;100802.66;5098064;27;45410;-45
2022/09/24 05:19:19;;;;;;;;;12.67;11.67;;;;;16.38;63.09;100804.66;5097990;27;45327;-46
2022/09/24 05:21:45;;;;;;;;;14.33;10.67;;;;;16.39;63.01;100810.88;5098017;27;45385;-46
2022/09/24 05:24:10;;;;;;;;;16.33;10.33;;;;;16.40;63.31;100817.94;5097742;27;47062;-46
2022/09/24 05:29:19;;;;;;;;;13.00;11.00;;;;;16.40;62.81;100817.94;5097790;27;45412;-46
2022/09/24 05:31:45;;;;;;;;;9.33;8.67;;;;;16.39;63.17;100817.09;5098051;27;45145;-48
2022/09/24 05:34:10;;;;;;;;;11.67;10.00;;;;;16.35;63.05;100828.34;5097301;27;47077;-47
2022/09/24 05:36:36;;;;;;;;;11.33;10.00;;;;;16.34;62.89;100827.53;5097662;27;45228;-46
2022/09/24 05:39:01;;;;;;;;;13.33;11.00;;;;;16.30;62.79;100818.16;5097754;27;45289;-46
2022/09/24 05:41:27;;;;;;;;;10.00;9.33;;;;;16.32;63.48;100826.88;5097608;27;45504;-47
2022/09/24 05:43:52;;;;;;;;;12.33;11.00;;;;;16.27;63.97;100828.47;5097233;27;45998;-48
2022/09/24 05:46:17;;;;;;;;;15.67;11.33;;;;;16.23;64.23;100808.38;5097306;27;45456;-46
2022/09/24 05:48:43;;;;;;;;;10.00;10.00;;;;;16.27;63.98;100834.66;5097611;27;45417;-44
2022/09/24 05:51:08;;;;;;;;;11.67;10.67;;;;;16.26;64.60;100832.13;5097659;27;45498;-46
2022/09/24 05:53:34;;;;;;;;;11.00;11.00;;;;;16.23;65.08;100827.97;5078971;27;46250;-47
2022/09/24 05:55:59;;;;;;;;;12.33;12.00;;;;;16.22;64.87;100823.59;5097162;27;45442;-45
2022/09/24 05:58:25;;;;;;;;;14.33;12.67;;;;;16.20;64.92;100831.84;5097239;27;45393;-49
2022/09/24 06:00:51;;;;;;;;;21.00;12.00;;;;;16.18;64.93;100827.66;5097810;27;45379;-48
2022/09/24 06:03:18;;;;;;;;;12.67;12.67;;;;;16.16;64.16;100825.19;5078521;27;45488;-48
2022/09/24 06:05:48;;;;;;;;;14.00;11.00;;;;;16.10;63.78;100811.66;5097189;27;45279;-46
2022/09/24 06:08:16;;;;;;;;;11.67;11.33;;;;;15.85;64.50;100766.25;5097224;27;45313;-47
2022/09/24 06:10:44;;;;;;;;;15.33;15.00;;;;;16.26;64.72;100832.97;5078961;27;45357;-47
2022/09/24 06:13:10;;;;;;;;;16.33;12.00;;;;;16.29;63.96;100835.28;5096553;27;46210;-46
2022/09/24 06:15:37;;;;;;;;;18.00;11.33;;;;;16.32;63.63;100837.63;5097106;27;45395;-46
2022/09/24 06:18:02;;;;;;;;;13.33;10.00;;;;;16.32;63.82;100837.63;5097187;27;45237;-46
2022/09/24 06:20:28;;;;;;;;;13.00;11.33;;;;;16.40;64.02;100847.47;5097296;27;45337;-46
2022/09/24 06:22:56;;;;;;;;;16.33;13.33;;;;;16.40;64.12;100842.91;5096910;27;45382;-46
2022/09/24 06:25:22;;;;;;;;;11.00;10.00;;;;;16.42;64.27;100842.72;5096962;27;45350;-45
2022/09/24 06:27:54;;;;;;;;;17.67;11.67;;;;;16.45;64.13;100850.44;5097060;27;45394;-48
2022/09/24 06:30:20;;;;;;;;;12.67;12.00;;;;;16.45;64.68;100842.38;5097187;27;45299;-49
2022/09/24 06:32:45;;;;;;;;;11.00;11.00;;;;;16.49;64.13;100864.31;5096717;27;47051;-49
2022/09/24 06:35:10;;;;;;;;;18.33;13.67;;;;;16.45;64.32;100855.78;5096908;27;45342;-46
2022/09/24 06:37:36;;;;;;;;;15.33;14.00;;;;;16.52;64.38;100856.75;5096816;27;45444;-49
2022/09/24 06:40:01;;;;;;;;;11.33;9.33;;;;;16.57;64.51;100859.72;5097193;27;45327;-47
2022/09/24 06:42:26;;;;;;;;;13.33;9.67;;;;;16.59;64.18;100854.97;5096429;27;47000;-50
2022/09/24 06:44:52;;;;;;;;;14.00;12.33;;;;;16.69;64.17;100860.09;5096586;27;45502;-46
2022/09/24 06:47:17;;;;;;;;;10.33;8.67;;;;;16.74;63.72;100862.25;5096809;27;45472;-46
2022/09/24 06:49:42;;;;;;;;;13.00;10.33;;;;;16.80;63.61;100864.19;5099309;27;45446;-49
2022/09/24 06:52:08;;;;;;;;;13.67;9.33;;;;;16.77;64.09;100854.69;5100214;27;45269;-49
2022/09/24 06:54:33;;;;;;;;;10.67;9.00;;;;;16.84;63.60;100857.44;5100056;27;45341;-45
2022/09/24 06:56:58;;;;;;;;;10.67;9.33;;;;;16.85;63.05;100864.47;5100242;27;45244;-47
2022/09/24 06:59:24;;;;;;;;;12.67;10.00;;;;;16.79;63.13;100862.53;5100312;27;45153;-48
2022/09/24 07:01:49;;;;;;;;;15.00;10.00;;;;;16.76;63.22;100866.41;5100104;27;45396;-47
2022/09/24 07:04:14;;;;;;;;;6.33;4.00;;;;;16.76;62.99;100871.78;5100121;27;45272;-49
2022/09/24 07:09:23;;;;;;;;;11.00;9.00;;;;;16.76;63.22;100871.78;5100420;27;45364;-51
2022/09/24 07:11:49;;;;;;;;;10.67;10.33;;;;;16.75;63.54;100867.44;5099900;27;45889;-52
2022/09/24 07:14:14;;;;;;;;;12.67;11.00;;;;;16.74;62.85;100862.25;5099873;27;45371;-49
2022/09/24 07:16:39;;;;;;;;;9.67;9.67;;;;;16.87;62.69;100863.28;5100066;27;45569;-49
2022/09/24 07:19:05;;;;;;;;;11.67;9.00;;;;;16.92;63.08;100868.94;5100297;27;45212;-51
2022/09/24 07:21:30;;;;;;;;;14.67;12.33;;;;;16.85;63.14;100849.19;5099677;27;46124;-49
2022/09/24 07:23:56;;;;;;;;;13.00;11.00;;;;;17.00;63.02;100873.38;5081438;27;45380;-50
2022/09/24 07:26:21;;;;;;;;;10.67;9.00;;;;;17.00;63.12;100878.75;5081769;27;45433;-46
2022/09/24 07:28:46;;;;;;;;;15.00;10.67;;;;;17.00;62.68;100875.25;5099955;27;45197;-49
2022/09/24 07:31:12;;;;;;;;;13.33;10.33;;;;;16.96;62.68;100877.47;5099720;27;46381;-54
2022/09/24 07:33:37;;;;;;;;;13.00;10.00;;;;;16.99;62.65;100878.97;5099635;27;45431;-57
2022/09/24 07:36:06;;;;;;;;;15.67;10.67;;;;;16.94;62.71;100874.97;5099779;27;45352;-51
2022/09/24 07:38:32;;;;;;;;;9.00;7.67;;;;;16.94;62.71;100884.88;5099475;27;45447;-48
2022/09/24 07:40:57;;;;;;;;;11.00;9.00;;;;;16.90;62.37;100872.84;5099028;27;46344;-48
2022/09/24 07:43:23;;;;;;;;;10.00;9.33;;;;;17.00;62.41;100884.13;5099457;27;45400;-48
2022/09/24 07:45:48;;;;;;;;;10.00;10.00;;;;;17.03;62.44;100888.31;5099320;27;45418;-49
2022/09/24 07:48:14;;;;;;;;;16.33;11.67;;;;;17.03;62.29;100889.16;5099844;27;45358;-47
2022/09/24 07:50:41;;;;;;;;;16.00;10.00;;;;;17.06;62.79;100891.44;5107267;27;47267;-49
2022/09/24 07:53:11;;;;;;;;;10.00;10.00;;;;;17.01;62.84;100901.91;5115546;27;45324;-51
2022/09/24 07:55:39;;;;;;;;;8.00;5.33;;;;;17.00;63.17;100905.63;5119831;27;45356;-54
2022/09/24 07:58:07;;;;;;;;;17.00;10.33;;;;;17.03;63.43;100905.28;5119514;27;45191;-52
2022/09/24 08:00:33;;;;;;;;;8.33;7.00;;;;;17.04;63.29;100904.25;5119022;27;46103;-50
2022/09/24 08:03:01;;;;;;;;;11.00;8.67;;;;;17.06;62.97;100896.81;5119059;27;45685;-51
2022/09/24 08:05:26;;;;;;;;;10.33;8.00;;;;;17.04;63.69;100901.56;5118651;27;45441;-54
2022/09/24 08:07:54;;;;;;;;;13.00;12.00;;;;;16.93;63.99;100905.53;5119960;27;45423;-56
2022/09/24 08:10:20;;;;;;;;;12.00;9.67;;;;;16.89;63.05;100906.06;5119328;27;46405;-53
2022/09/24 08:12:45;;;;;;;;;8.33;7.00;;;;;16.85;63.58;100910.16;5119041;27;45242;-59
2022/09/24 08:15:11;;;;;;;;;11.33;10.00;;;;;16.77;63.26;100907.53;5119506;27;45306;-49
2022/09/24 08:17:36;;;;;;;;;9.67;9.67;;;;;16.78;64.37;100906.56;5097274;27;45318;-57
2022/09/24 08:20:01;;;;;;;;;10.00;10.00;;;;;16.80;64.51;100910.69;5098422;27;45988;-60
2022/09/24 08:22:26;;;;;;;;;12.33;9.33;;;;;16.80;64.43;100910.69;5098350;27;45346;-60
2022/09/24 08:24:52;;;;;;;;;13.00;10.00;;;;;16.88;64.54;100910.63;5099474;27;45216;-59
2022/09/24 08:27:19;;;;;;;;;10.67;10.67;;;;;16.89;64.17;100911.44;5100533;27;45199;-61
2022/09/24 08:29:45;;;;;;;;;11.00;10.00;;;;;16.95;64.03;100911.56;5099111;27;45420;-59
2022/09/24 08:32:12;;;;;;;;;16.33;10.67;;;;;16.98;63.85;100917.56;5098693;27;45346;-56
2022/09/24 08:34:39;;;;;;;;;10.67;10.67;;;;;17.02;63.36;100918.88;5099100;27;45371;-60
2022/09/24 08:37:05;;;;;;;;;14.00;10.33;;;;;16.91;63.07;100896.00;5098552;27;45243;-60
2022/09/24 08:39:32;;;;;;;;;15.67;11.67;;;;;17.05;63.95;100924.72;5098122;27;46605;-55
2022/09/24 08:42:18;;;;;;;;;10.00;8.33;;;;;17.10;63.34;100922.31;5097944;27;45514;-58
2022/09/24 08:47:53;;;;;;;;;13.00;10.00;;;;;17.20;63.51;100928.25;5098519;27;45461;-51
2022/09/24 08:50:19;;;;;;;;;12.67;11.00;;;;;17.23;63.26;100924.34;5098168;27;45385;-53
2022/09/24 08:53:38;;;;;;;;;18.67;12.33;;;;;17.28;62.21;100926.50;5098306;27;45464;-59
2022/09/24 08:56:05;;;;;;;;;12.33;12.33;;;;;17.31;63.66;100931.50;4995293;28;45404;-50
2022/09/24 08:58:40;;;;;;;;;18.33;16.67;;;;;17.35;63.63;100922.03;4995278;28;45524;-62
2022/09/24 09:01:08;;;;;;;;;20.67;14.67;;;;;17.44;63.65;100926.28;4994366;28;45442;-53
2022/09/24 09:03:52;;;;;;;;;15.33;13.67;;;;;17.49;63.39;100923.88;4995351;28;45449;-59
2022/09/24 09:06:39;;;;;;;;;23.33;15.33;;;;;17.55;62.24;100924.97;4995402;28;45348;-51
2022/09/24 09:09:19;;;;;;;;;14.00;12.67;;;;;17.58;62.16;100928.13;4995549;28;45418;-59
2022/09/24 09:11:50;;;;;;;;;19.33;16.33;;;;;17.66;62.51;100930.72;4994626;28;47098;-57
2022/09/24 09:14:28;;;;;;;;;15.67;13.00;;;;;17.66;61.90;100932.59;4995383;28;45302;-59
2022/09/24 09:17:02;;;;;;;;;11.00;11.00;;;;;17.74;62.71;100935.19;4995664;28;45445;-62
2022/09/24 09:19:33;;;;;;;;;13.33;13.00;;;;;17.81;62.41;100930.69;4995678;28;45404;-47
2022/09/24 09:22:11;;;;;;;;;11.33;11.33;;;;;17.90;62.21;100934.94;4995163;28;46020;-52
2022/09/24 09:24:47;;;;;;;;;16.33;12.67;;;;;17.96;61.48;100928.00;4995088;28;45309;-49
2022/09/24 09:27:15;;;;;;;;;14.00;11.00;;;;;17.99;61.34;100932.13;4995374;28;45237;-48
2022/09/24 09:29:43;;;;;;;;;17.00;13.00;;;;;17.98;60.59;100931.31;4995341;28;45498;-56
2022/09/24 09:32:12;;;;;;;;;19.33;14.33;;;;;17.94;60.11;100932.72;5049835;27;46239;-55
2022/09/24 09:34:57;;;;;;;;;20.33;12.33;;;;;17.97;60.80;100939.59;5097970;27;45417;-59
2022/09/24 09:37:29;;;;;;;;;14.67;12.67;;;;;18.03;60.57;100928.03;5096920;27;45419;-55
2022/09/24 09:40:23;;;;;;;;;14.33;13.00;;;;;18.09;60.28;100933.50;5098160;27;45260;-63
2022/09/24 09:42:49;;;;;;;;;15.00;13.00;;;;;18.03;60.16;100934.25;5097346;27;46274;-60
2022/09/24 09:45:39;;;;;;;;;15.00;12.00;;;;;18.00;60.31;100931.13;5097395;27;45492;-60
2022/09/24 09:48:07;;;;;;;;;17.00;11.00;;;;;17.99;60.73;100929.44;5097661;27;45465;-56
2022/09/24 09:50:41;;;;;;;;;13.00;12.00;;;;;17.99;60.69;100932.97;5097961;27;45388;-61
2022/09/24 09:53:21;;;;;;;;;18.00;13.00;;;;;17.98;60.85;100942.06;5097541;27;45334;-57
2022/09/24 09:55:53;;;;;;;;;21.67;15.67;;;;;17.97;60.81;100929.66;5097307;27;45248;-55
2022/09/24 09:58:23;;;;;;;;;11.67;10.00;;;;;17.98;61.06;100938.56;5097313;27;45437;-56
2022/09/24 10:00:49;;;;;;;;;15.33;13.00;;;;;17.97;61.27;100940.41;5097828;27;45191;-58
2022/09/24 10:03:27;;;;;;;;;19.00;19.00;;;;;17.87;61.29;100929.97;5078744;27;48021;-60
2022/09/24 10:06:02;;;;;;;;;19.67;16.00;;;;;17.84;61.50;100937.56;5097085;27;45455;-53
2022/09/24 10:08:27;;;;;;;;;18.33;16.00;;;;;17.79;61.45;100940.84;5097334;27;45488;-58
2022/09/24 10:10:55;;;;;;;;;39.00;34.00;;;;;17.75;61.58;100938.72;5097388;27;45429;-54
2022/09/24 10:13:21;;;;;;;;;42.00;33.33;;;;;17.73;61.63;100940.72;5097119;27;47256;-53
2022/09/24 10:15:50;;;;;;;;;18.67;17.33;;;;;17.69;61.57;100942.94;5097062;27;45239;-59
2022/09/24 10:18:16;;;;;;;;;27.67;22.67;;;;;17.67;61.62;100936.94;5097130;27;45344;-51
2022/09/24 10:20:47;;;;;;;;;25.33;20.33;;;;;17.63;61.73;100941.84;5097313;27;45425;-60
2022/09/24 10:23:20;;;;;;;;;19.33;19.33;;;;;17.63;61.75;100941.03;5097244;27;45405;-54
2022/09/24 10:25:52;;;;;;;;;26.33;23.33;;;;;17.54;61.92;100926.00;5100746;27;45316;-60
2022/09/24 10:31:10;;;;;;;;;21.33;18.67;;;;;17.71;61.81;100935.53;5100704;27;45481;-61
2022/09/24 10:33:37;;;;;;;;;26.00;20.33;;;;;17.78;61.82;100932.94;5100546;27;47115;-61
2022/09/24 10:36:17;;;;;;;;;18.00;15.67;;;;;17.80;61.07;100933.59;5100589;27;45402;-61
2022/09/24 10:38:43;;;;;;;;;20.00;18.00;;;;;17.84;61.15;100937.56;5100640;27;45525;-60
2022/09/24 10:41:22;;;;;;;;;23.33;18.67;;;;;17.89;60.99;100932.44;5100458;27;45458;-49
2022/09/24 10:43:53;;;;;;;;;23.00;17.33;;;;;17.98;60.58;100941.25;5100476;27;46142;-59
2022/09/24 10:46:37;;;;;;;;;20.00;18.33;;;;;18.05;60.49;100940.31;5100369;27;45341;-47
2022/09/24 10:49:24;;;;;;;;;18.67;15.00;;;;;18.20;60.34;100924.94;5100518;27;45351;-61
2022/09/24 10:52:29;;;;;;;;;20.33;17.67;;;;;18.26;59.11;100936.78;5100497;27;45513;-54
2022/09/24 10:55:14;;;;;;;;;19.67;15.00;;;;;18.38;59.64;100937.09;5100170;27;45365;-54
2022/09/24 10:57:58;;;;;;;;;23.67;20.67;;;;;18.50;59.05;100930.19;5100350;27;45327;-46
2022/09/24 11:00:34;;;;;;;;;21.67;16.33;;;;;18.65;58.52;100922.81;5100103;27;45355;-59
2022/09/24 11:03:27;;;;;;;;;19.33;16.67;;;;;19.07;58.06;100931.84;5100287;27;45387;-57
2022/09/24 11:06:09;;;;;;;;;20.33;16.00;;;;;19.77;56.77;100934.53;5099876;27;46268;-52
2022/09/24 11:08:53;;;;;;;;;23.00;17.67;;;;;19.98;55.28;100926.28;5099948;27;45355;-45
2022/09/24 11:11:32;;;;;;;;;20.67;19.33;;;;;20.07;55.12;100927.75;5099971;27;45348;-50
2022/09/24 11:14:14;;;;;;;;;20.33;18.00;;;;;20.15;55.14;100932.97;5098994;27;45285;-61
2022/09/24 11:17:02;;;;;;;;;21.33;17.67;;;;;20.23;54.58;100936.53;5099556;27;45430;-46
2022/09/24 11:20:03;;;;;;;;;25.00;20.00;;;;;20.16;54.11;100931.91;5099780;27;45391;-50
2022/09/24 11:22:38;;;;;;;;;19.25;17.25;;;;;20.08;55.05;100940.22;5099912;27;45234;-61
2022/09/24 11:25:06;;;;;;;;;21.50;18.75;;;;;19.99;54.99;100938.75;5099834;27;45308;-58
2022/09/24 11:27:31;;;;;;;;;24.75;18.00;;;;;19.88;54.71;100934.75;5099733;27;45436;-59
2022/09/24 11:30:38;;;;;;;;;19.25;16.25;;;;;19.81;54.83;100933.91;5099506;27;45182;-47
2022/09/24 11:33:25;;;;;;;;;20.50;17.00;;;;;19.78;54.84;100928.09;4996988;28;45581;-48
2022/09/24 11:36:11;;;;;;;;;17.75;17.50;;;;;19.75;55.40;100925.78;4996738;28;45514;-59
2022/09/24 11:38:36;;;;;;;;;20.00;18.00;;;;;19.75;55.43;100929.31;4996552;28;45411;-56
2022/09/24 11:41:10;;;;;;;;;23.67;20.00;;;;;19.81;55.08;100933.91;5004096;28;45494;-58